Αρχική σελίδα
METAR-TAF:

METAR-TAF

Αεροδρόμια :

Broken Bow, Νεμπράσκα, Ηνωμένες Πολιτείες Αμερικής

γεωγραφικό πλάτος: 41-26N, γεωγραφικό μήκος: 099-39W, υψόμετρο: 776 μ

Παρών καιρός

Η αναφορά έγινε 42 λεπτά πριν, στις 07:53 UTC
Ήπιος άνεμος
Θερμοκρασία 18°C
Υγρασία 94%
Πίεση 1014 hPa
Ορατότητα: 16.1 χλμ
Καθαρός ουρανός

METAR: KBBW 200753Z AUTO 00000KT 10SM CLR 18/17 A2995 RMK AO2 SLP118 T01780172

Χρόνος: 03:35 (08:35 UTC)


TAF: λείπει

Μετεωρολογικές αναφορές και προγνώσεις για περισσότερα από 4000 αεροδρόμια (δελτία METAR και TAF).

Οι διαθέσιμοι σταθμοί απεικονίζονται στο χάρτη με κίτρινες και κόκκινες κουκκίδες.

Μετακινήστε το ποντίκι πάνω από τις κουκκίδες για να δείτε το όνομα του σταθμού.

Στη συνέχεια, κάντε κλικ για να δείτε τις μετεωρολογικές αναφορές και τις προγνώσεις καιρού.

Για να αλλάξετε το χάρτη: κάντε κλικ στα πράσινα κουμπιά με τον μαύρο σταυρό για να ζουμάρετε, στο πράσινο κουμπί με την παύλα για να αφαιρέσετε το ζουμ ή στα πράσινα βέλη για να αντιπαραβάλλετε χάρτες.


METAR-TAF: